ルレオ の空港の天気 - METARとTAF

Lulea / Kallax ( ESPA / LLA ) - スウェーデン ルレオ
飛行場実況気象(Metar)
観測時間08/14 06:20 CEST (08/14 04:20 UTC)
風向・風速西南西 4m/s
視程10km以上
天気現象
なし
気温16℃
湿度88%
気圧1009hPa
METARESPA 140420Z 24007KT 210V270 CAVOK 16/14 Q1009
過去の天気等 Google飛行場航空写真 Wunderground天気予報

過去48時間のMETAR

飛行場予報(TAF)
発表時間: 8/14 06:00 CEST (8/14 04:00 UTC)
予報対象時間: 14日6時 CEST ~ 14日14時 CEST
風向・風速西 3m/s
視程10km以上
なし
TAF COR ESPA 140400Z 1404/1412 28005KT CAVOK RMK MIL